Ty Dolese — WDH7645 — position and weather

sailwx.info

Track history (hours):
 
Tides and Currents Weather Stations Pressure Air Temp Water Temp Dewpoint Dewpoint Depression Visibility Wind Speed Wind Dir Waves Ship Positions

Ty Dolese

Owner: Florida Marine, LLC, Mandeville, LA. More information available from US FCC via Universal Licensing System and Coast Guard Vessel Documentation Center.

Last reported at 2017-Nov-17 05:05 UTC. Time now 2017-Nov-22 18:40 UTC.
Position N 31°60' W 091°05'.

Length 27 m; draft 2.9 m.

Type: Other ship. MMSI: 367650190.

Date/timePositionNaut miles runAvg speedWind from/ knotsBaromVisibWave heightAir tempDewpointWater temp
2017-Nov-17 05:05N 31°60' W 091°05'1 8.9
2017-Nov-17 05:00N 32°00' W 091°05'6 7.8
2017-Nov-17 04:15N 32°06' W 091°06'2 7.1
2017-Nov-17 04:00N 32°08' W 091°06'4 8.8
2017-Nov-17 03:30N 32°08' W 091°01'5 9.4
2017-Nov-17 03:00N 32°12' W 090°59'4 8.9
2017-Nov-17 02:30N 32°16' W 090°57'5 9.0
2017-Nov-17 02:00N 32°20' W 090°54'3 5.4
2017-Nov-17 01:30N 32°22' W 090°53'1 1.9
2017-Nov-17 01:00N 32°23' W 090°53'0 0.3
2017-Nov-17 00:30N 32°23' W 090°53'0 0.0
2017-Nov-17 00:00N 32°23' W 090°53'0 0.0
2017-Nov-16 23:30N 32°23' W 090°53'0 0.0
2017-Nov-16 23:00N 32°23' W 090°53'0 0.0
2017-Nov-16 22:30N 32°23' W 090°53'0 0.0
2017-Nov-16 22:00N 32°23' W 090°53'0 0.0
2017-Nov-16 21:30N 32°23' W 090°53'0 0.0
2017-Nov-16 21:00N 32°23' W 090°53'0 0.0
2017-Nov-16 20:30N 32°23' W 090°53'0 0.0
2017-Nov-16 20:00N 32°23' W 090°53'0 0.0
2017-Nov-16 19:30N 32°23' W 090°53'0 0.0
2017-Nov-16 19:00N 32°23' W 090°53'0 0.0
2017-Nov-16 18:30N 32°23' W 090°53'0 0.0
2017-Nov-16 18:00N 32°23' W 090°53'0 0.0
2017-Nov-16 17:30N 32°23' W 090°53'0 0.0
2017-Nov-16 17:00N 32°23' W 090°53'0 0.0
2017-Nov-16 16:30N 32°23' W 090°53'0 0.0
2017-Nov-16 16:00N 32°23' W 090°53'0 0.0
2017-Nov-16 15:30N 32°23' W 090°53'0 0.0
2017-Nov-16 15:00N 32°23' W 090°53'0 0.0
2017-Nov-16 14:30N 32°23' W 090°53'0 0.0
2017-Nov-16 14:00N 32°23' W 090°53'0 0.0
2017-Nov-16 13:30N 32°23' W 090°53'0 0.0
2017-Nov-16 13:00N 32°23' W 090°53'0 0.0
2017-Nov-16 12:30N 32°23' W 090°53'0 0.0
2017-Nov-16 12:00N 32°23' W 090°53'0 0.0
2017-Nov-16 11:30N 32°23' W 090°53'0 0.0
2017-Nov-16 11:00N 32°23' W 090°53'0 0.0
2017-Nov-16 10:30N 32°23' W 090°53'0 0.0
2017-Nov-16 10:00N 32°23' W 090°53'0 0.0
2017-Nov-16 09:30N 32°23' W 090°53'0 0.0
2017-Nov-16 09:00N 32°23' W 090°53'0 0.0
2017-Nov-16 08:30N 32°23' W 090°53'0 0.0
2017-Nov-16 08:00N 32°23' W 090°53'0 0.0
2017-Nov-16 07:30N 32°23' W 090°53'0 0.0
2017-Nov-16 07:00N 32°23' W 090°53'0 0.0
2017-Nov-16 06:30N 32°23' W 090°53'0 0.0
2017-Nov-16 06:00N 32°23' W 090°53'0 0.0
2017-Nov-16 05:30N 32°23' W 090°53'0 0.0
2017-Nov-16 05:00N 32°23' W 090°53'0 0.0
2017-Nov-16 04:30N 32°23' W 090°53'0 0.0
2017-Nov-16 04:00N 32°23' W 090°53'0 0.0
2017-Nov-16 03:30N 32°23' W 090°53'0 0.0
2017-Nov-16 03:00N 32°23' W 090°53'0 0.0
2017-Nov-16 02:30N 32°23' W 090°53'0 0.0
2017-Nov-16 02:00N 32°23' W 090°53'0 0.0
2017-Nov-16 01:30N 32°23' W 090°53'0 0.0
2017-Nov-16 01:00N 32°23' W 090°53'0 0.0
2017-Nov-16 00:30N 32°23' W 090°53'0 0.0
2017-Nov-16 00:00N 32°23' W 090°53'0 0.0
2017-Nov-15 23:30N 32°23' W 090°53'0 0.8
2017-Nov-15 23:00N 32°23' W 090°52'1 1.2
2017-Nov-15 22:30N 32°22' W 090°53'1 2.9
2017-Nov-15 22:00N 32°23' W 090°53'0 0.1
2017-Nov-15 21:30N 32°23' W 090°53'0 0.0
2017-Nov-15 21:00N 32°23' W 090°53'0 0.0
2017-Nov-15 20:30N 32°23' W 090°53'0 0.0
2017-Nov-15 20:00N 32°23' W 090°53'0 0.0
2017-Nov-15 19:30N 32°23' W 090°53'0 0.0
2017-Nov-15 19:00N 32°23' W 090°53'0 0.0
2017-Nov-15 18:30N 32°23' W 090°53'0 0.0
2017-Nov-15 18:00N 32°23' W 090°53'0 0.0
2017-Nov-15 17:30N 32°23' W 090°53'0 0.0
2017-Nov-15 17:00N 32°23' W 090°53'0 0.0
2017-Nov-15 16:30N 32°23' W 090°53'0 0.0
2017-Nov-15 16:00N 32°23' W 090°53'0 0.0
2017-Nov-15 15:30N 32°23' W 090°53'0 0.0
2017-Nov-15 15:00N 32°23' W 090°53'0 0.0
2017-Nov-15 14:30N 32°23' W 090°53'0 0.0
2017-Nov-15 14:00N 32°23' W 090°53'0 0.0
2017-Nov-15 13:30N 32°23' W 090°53'0 0.0
2017-Nov-15 13:00N 32°23' W 090°53'0 0.0
2017-Nov-15 12:30N 32°23' W 090°53'0 0.0
2017-Nov-15 12:00N 32°23' W 090°53'0 0.0
2017-Nov-15 11:30N 32°23' W 090°53'0 0.0
2017-Nov-15 11:00N 32°23' W 090°53'0 0.0
2017-Nov-15 10:30N 32°23' W 090°53'0 0.0
2017-Nov-15 10:00N 32°23' W 090°53'0 0.0
2017-Nov-15 09:30N 32°23' W 090°53'0 0.0
2017-Nov-15 09:00N 32°23' W 090°53'0 0.0
2017-Nov-15 08:30N 32°23' W 090°53'0 0.0
2017-Nov-15 08:00N 32°23' W 090°53'0 0.0
2017-Nov-15 07:30N 32°23' W 090°53'0 0.0
2017-Nov-15 07:00N 32°23' W 090°53'0 0.0
2017-Nov-15 06:30N 32°23' W 090°53'0 0.0
2017-Nov-15 06:00N 32°23' W 090°53'0 0.0
2017-Nov-15 05:30N 32°23' W 090°53'0 0.0
2017-Nov-15 05:00N 32°23' W 090°53'0 0.0
2017-Nov-15 04:30N 32°23' W 090°53'0 0.0
2017-Nov-15 04:00N 32°23' W 090°53'0 0.0
2017-Nov-15 03:30N 32°23' W 090°53'0 0.0
2017-Nov-15 03:00N 32°23' W 090°53'0 0.0
2017-Nov-15 02:30N 32°23' W 090°53'0 0.0
2017-Nov-15 02:00N 32°23' W 090°53'0 0.0
2017-Nov-15 01:30N 32°23' W 090°53'0 0.0
2017-Nov-15 01:00N 32°23' W 090°53'0 0.0
2017-Nov-15 00:30N 32°23' W 090°53'0 0.0
2017-Nov-15 00:00N 32°23' W 090°53'0 0.0
2017-Nov-14 23:30N 32°23' W 090°53'0 0.0
2017-Nov-14 23:00N 32°23' W 090°53'0 0.0
2017-Nov-14 22:30N 32°23' W 090°53'0 0.0
2017-Nov-14 22:00N 32°23' W 090°53'0 0.0
2017-Nov-14 21:30N 32°23' W 090°53'0 0.0
2017-Nov-14 21:00N 32°23' W 090°53'0 0.0
2017-Nov-14 20:30N 32°23' W 090°53'0 0.0
2017-Nov-14 20:00N 32°23' W 090°53'0 0.0
2017-Nov-14 19:30N 32°23' W 090°53'0 0.0
2017-Nov-14 19:00N 32°23' W 090°53'0 0.0
2017-Nov-14 18:30N 32°23' W 090°53'0 0.0
2017-Nov-14 18:00N 32°23' W 090°53'0 0.0
2017-Nov-14 17:30N 32°23' W 090°53'0 0.0
2017-Nov-14 17:00N 32°23' W 090°53'0 0.0
2017-Nov-14 16:30N 32°23' W 090°53'0 0.0
2017-Nov-14 16:00N 32°23' W 090°53'0 0.0
2017-Nov-14 15:30N 32°23' W 090°53'0 0.0
2017-Nov-14 15:00N 32°23' W 090°53'0 0.0
2017-Nov-14 14:30N 32°23' W 090°53'0 0.0
2017-Nov-14 14:00N 32°23' W 090°53'0 0.0
2017-Nov-14 13:30N 32°23' W 090°53'0 0.0
2017-Nov-14 13:00N 32°23' W 090°53'0 0.0
2017-Nov-14 12:30N 32°23' W 090°53'0 0.0
2017-Nov-14 12:00N 32°23' W 090°53'0 0.0
2017-Nov-14 11:30N 32°23' W 090°53'0 0.0
2017-Nov-14 11:00N 32°23' W 090°53'0 0.9
2017-Nov-14 10:30N 32°23' W 090°53'2 3.2
2017-Nov-14 10:00N 32°21' W 090°53'1 2.9
2017-Nov-14 09:30N 32°20' W 090°54'0 0.8
2017-Nov-14 09:00N 32°20' W 090°54'2 3.5
2017-Nov-14 08:30N 32°21' W 090°56'4 7.3
2017-Nov-14 08:00N 32°22' W 091°00'4 7.3
2017-Nov-14 07:30N 32°26' W 091°01'4 8.6
2017-Nov-14 07:00N 32°28' W 091°06'4 8.1
2017-Nov-14 06:29N 32°32' W 091°06'5 8.5
2017-Nov-14 05:57N 32°36' W 091°08'4 8.2
2017-Nov-14 05:28N 32°40' W 091°08'  
Track history (hours):
 
Tides and Currents Weather Stations Pressure Air Temp Water Temp Dewpoint Dewpoint Depression Visibility Wind Speed Wind Dir Waves Ship Positions

Ty Dolese

Owner: Florida Marine, LLC, Mandeville, LA. More information available from US FCC via Universal Licensing System and Coast Guard Vessel Documentation Center.

Last reported at 2017-Nov-17 05:05 UTC. Time now 2017-Nov-22 18:40 UTC.
Position N 31°60' W 091°05'.

Length 27 m; draft 2.9 m.

Type: Other ship. MMSI: 367650190.

Date/timePositionNaut miles runAvg speedWind from/ knotsBaromVisibWave heightAir tempDewpointWater temp
2017-Nov-17 05:05N 31°60' W 091°05'1 8.9
2017-Nov-17 05:00N 32°00' W 091°05'6 7.8
2017-Nov-17 04:15N 32°06' W 091°06'2 7.1
2017-Nov-17 04:00N 32°08' W 091°06'4 8.8
2017-Nov-17 03:30N 32°08' W 091°01'5 9.4
2017-Nov-17 03:00N 32°12' W 090°59'4 8.9
2017-Nov-17 02:30N 32°16' W 090°57'5 9.0
2017-Nov-17 02:00N 32°20' W 090°54'3 5.4
2017-Nov-17 01:30N 32°22' W 090°53'1 1.9
2017-Nov-17 01:00N 32°23' W 090°53'0 0.3
2017-Nov-17 00:30N 32°23' W 090°53'0 0.0
2017-Nov-17 00:00N 32°23' W 090°53'0 0.0
2017-Nov-16 23:30N 32°23' W 090°53'0 0.0
2017-Nov-16 23:00N 32°23' W 090°53'0 0.0
2017-Nov-16 22:30N 32°23' W 090°53'0 0.0
2017-Nov-16 22:00N 32°23' W 090°53'0 0.0
2017-Nov-16 21:30N 32°23' W 090°53'0 0.0
2017-Nov-16 21:00N 32°23' W 090°53'0 0.0
2017-Nov-16 20:30N 32°23' W 090°53'0 0.0
2017-Nov-16 20:00N 32°23' W 090°53'0 0.0
2017-Nov-16 19:30N 32°23' W 090°53'0 0.0
2017-Nov-16 19:00N 32°23' W 090°53'0 0.0
2017-Nov-16 18:30N 32°23' W 090°53'0 0.0
2017-Nov-16 18:00N 32°23' W 090°53'0 0.0
2017-Nov-16 17:30N 32°23' W 090°53'0 0.0
2017-Nov-16 17:00N 32°23' W 090°53'0 0.0
2017-Nov-16 16:30N 32°23' W 090°53'0 0.0
2017-Nov-16 16:00N 32°23' W 090°53'0 0.0
2017-Nov-16 15:30N 32°23' W 090°53'0 0.0
2017-Nov-16 15:00N 32°23' W 090°53'0 0.0
2017-Nov-16 14:30N 32°23' W 090°53'0 0.0
2017-Nov-16 14:00N 32°23' W 090°53'0 0.0
2017-Nov-16 13:30N 32°23' W 090°53'0 0.0
2017-Nov-16 13:00N 32°23' W 090°53'0 0.0
2017-Nov-16 12:30N 32°23' W 090°53'0 0.0
2017-Nov-16 12:00N 32°23' W 090°53'0 0.0
2017-Nov-16 11:30N 32°23' W 090°53'0 0.0
2017-Nov-16 11:00N 32°23' W 090°53'0 0.0
2017-Nov-16 10:30N 32°23' W 090°53'0 0.0
2017-Nov-16 10:00N 32°23' W 090°53'0 0.0
2017-Nov-16 09:30N 32°23' W 090°53'0 0.0
2017-Nov-16 09:00N 32°23' W 090°53'0 0.0
2017-Nov-16 08:30N 32°23' W 090°53'0 0.0
2017-Nov-16 08:00N 32°23' W 090°53'0 0.0
2017-Nov-16 07:30N 32°23' W 090°53'0 0.0
2017-Nov-16 07:00N 32°23' W 090°53'0 0.0
2017-Nov-16 06:30N 32°23' W 090°53'0 0.0
2017-Nov-16 06:00N 32°23' W 090°53'0 0.0
2017-Nov-16 05:30N 32°23' W 090°53'0 0.0
2017-Nov-16 05:00N 32°23' W 090°53'0 0.0
2017-Nov-16 04:30N 32°23' W 090°53'0 0.0
2017-Nov-16 04:00N 32°23' W 090°53'0 0.0
2017-Nov-16 03:30N 32°23' W 090°53'0 0.0
2017-Nov-16 03:00N 32°23' W 090°53'0 0.0
2017-Nov-16 02:30N 32°23' W 090°53'0 0.0
2017-Nov-16 02:00N 32°23' W 090°53'0 0.0
2017-Nov-16 01:30N 32°23' W 090°53'0 0.0
2017-Nov-16 01:00N 32°23' W 090°53'0 0.0
2017-Nov-16 00:30N 32°23' W 090°53'0 0.0
2017-Nov-16 00:00N 32°23' W 090°53'0 0.0
2017-Nov-15 23:30N 32°23' W 090°53'0 0.8
2017-Nov-15 23:00N 32°23' W 090°52'1 1.2
2017-Nov-15 22:30N 32°22' W 090°53'1 2.9
2017-Nov-15 22:00N 32°23' W 090°53'0 0.1
2017-Nov-15 21:30N 32°23' W 090°53'0 0.0
2017-Nov-15 21:00N 32°23' W 090°53'0 0.0
2017-Nov-15 20:30N 32°23' W 090°53'0 0.0
2017-Nov-15 20:00N 32°23' W 090°53'0 0.0
2017-Nov-15 19:30N 32°23' W 090°53'0 0.0
2017-Nov-15 19:00N 32°23' W 090°53'0 0.0
2017-Nov-15 18:30N 32°23' W 090°53'0 0.0
2017-Nov-15 18:00N 32°23' W 090°53'0 0.0
2017-Nov-15 17:30N 32°23' W 090°53'0 0.0
2017-Nov-15 17:00N 32°23' W 090°53'0 0.0
2017-Nov-15 16:30N 32°23' W 090°53'0 0.0
2017-Nov-15 16:00N 32°23' W 090°53'0 0.0
2017-Nov-15 15:30N 32°23' W 090°53'0 0.0
2017-Nov-15 15:00N 32°23' W 090°53'0 0.0
2017-Nov-15 14:30N 32°23' W 090°53'0 0.0
2017-Nov-15 14:00N 32°23' W 090°53'0 0.0
2017-Nov-15 13:30N 32°23' W 090°53'0 0.0
2017-Nov-15 13:00N 32°23' W 090°53'0 0.0
2017-Nov-15 12:30N 32°23' W 090°53'0 0.0
2017-Nov-15 12:00N 32°23' W 090°53'0 0.0
2017-Nov-15 11:30N 32°23' W 090°53'0 0.0
2017-Nov-15 11:00N 32°23' W 090°53'0 0.0
2017-Nov-15 10:30N 32°23' W 090°53'0 0.0
2017-Nov-15 10:00N 32°23' W 090°53'0 0.0
2017-Nov-15 09:30N 32°23' W 090°53'0 0.0
2017-Nov-15 09:00N 32°23' W 090°53'0 0.0
2017-Nov-15 08:30N 32°23' W 090°53'0 0.0
2017-Nov-15 08:00N 32°23' W 090°53'0 0.0
2017-Nov-15 07:30N 32°23' W 090°53'0 0.0
2017-Nov-15 07:00N 32°23' W 090°53'0 0.0
2017-Nov-15 06:30N 32°23' W 090°53'0 0.0
2017-Nov-15 06:00N 32°23' W 090°53'0 0.0
2017-Nov-15 05:30N 32°23' W 090°53'0 0.0
2017-Nov-15 05:00N 32°23' W 090°53'0 0.0
2017-Nov-15 04:30N 32°23' W 090°53'0 0.0
2017-Nov-15 04:00N 32°23' W 090°53'0 0.0
2017-Nov-15 03:30N 32°23' W 090°53'0 0.0
2017-Nov-15 03:00N 32°23' W 090°53'0 0.0
2017-Nov-15 02:30N 32°23' W 090°53'0 0.0
2017-Nov-15 02:00N 32°23' W 090°53'0 0.0
2017-Nov-15 01:30N 32°23' W 090°53'0 0.0
2017-Nov-15 01:00N 32°23' W 090°53'0 0.0
2017-Nov-15 00:30N 32°23' W 090°53'0 0.0
2017-Nov-15 00:00N 32°23' W 090°53'0 0.0
2017-Nov-14 23:30N 32°23' W 090°53'0 0.0
2017-Nov-14 23:00N 32°23' W 090°53'0 0.0
2017-Nov-14 22:30N 32°23' W 090°53'0 0.0
2017-Nov-14 22:00N 32°23' W 090°53'0 0.0
2017-Nov-14 21:30N 32°23' W 090°53'0 0.0
2017-Nov-14 21:00N 32°23' W 090°53'0 0.0
2017-Nov-14 20:30N 32°23' W 090°53'0 0.0
2017-Nov-14 20:00N 32°23' W 090°53'0 0.0
2017-Nov-14 19:30N 32°23' W 090°53'0 0.0
2017-Nov-14 19:00N 32°23' W 090°53'0 0.0
2017-Nov-14 18:30N 32°23' W 090°53'0 0.0
2017-Nov-14 18:00N 32°23' W 090°53'0 0.0
2017-Nov-14 17:30N 32°23' W 090°53'0 0.0
2017-Nov-14 17:00N 32°23' W 090°53'0 0.0
2017-Nov-14 16:30N 32°23' W 090°53'0 0.0
2017-Nov-14 16:00N 32°23' W 090°53'0 0.0
2017-Nov-14 15:30N 32°23' W 090°53'0 0.0
2017-Nov-14 15:00N 32°23' W 090°53'0 0.0
2017-Nov-14 14:30N 32°23' W 090°53'0 0.0
2017-Nov-14 14:00N 32°23' W 090°53'0 0.0
2017-Nov-14 13:30N 32°23' W 090°53'0 0.0
2017-Nov-14 13:00N 32°23' W 090°53'0 0.0
2017-Nov-14 12:30N 32°23' W 090°53'0 0.0
2017-Nov-14 12:00N 32°23' W 090°53'0 0.0
2017-Nov-14 11:30N 32°23' W 090°53'0 0.0
2017-Nov-14 11:00N 32°23' W 090°53'0 0.9
2017-Nov-14 10:30N 32°23' W 090°53'2 3.2
2017-Nov-14 10:00N 32°21' W 090°53'1 2.9
2017-Nov-14 09:30N 32°20' W 090°54'0 0.8
2017-Nov-14 09:00N 32°20' W 090°54'2 3.5
2017-Nov-14 08:30N 32°21' W 090°56'4 7.3
2017-Nov-14 08:00N 32°22' W 091°00'4 7.3
2017-Nov-14 07:30N 32°26' W 091°01'4 8.6
2017-Nov-14 07:00N 32°28' W 091°06'4 8.1
2017-Nov-14 06:29N 32°32' W 091°06'5 8.5
2017-Nov-14 05:57N 32°36' W 091°08'4 8.2
2017-Nov-14 05:28N 32°40' W 091°08'  

Dump ship's entire track history